createdAt,value
2017-06-19T00:00:34.428Z,0
2017-06-19T00:10:43.331Z,0
2017-06-19T00:20:52.274Z,0
2017-06-19T00:31:01.315Z,0
2017-06-19T00:41:10.383Z,0
2017-06-19T00:51:19.437Z,0
2017-06-19T01:01:28.553Z,0
2017-06-19T01:11:37.780Z,0
2017-06-19T01:21:46.981Z,0
2017-06-19T01:31:56.211Z,0
2017-06-19T01:42:05.504Z,0
2017-06-19T01:52:14.829Z,0
2017-06-19T02:02:24.139Z,0
2017-06-19T02:12:33.443Z,0
2017-06-19T02:22:42.761Z,4
2017-06-19T02:32:52.083Z,8
2017-06-19T02:43:01.439Z,36
2017-06-19T02:53:10.828Z,116
2017-06-19T03:03:20.186Z,296
2017-06-19T03:13:29.502Z,660
2017-06-19T03:23:38.762Z,1168
2017-06-19T03:33:48.036Z,1832
2017-06-19T03:43:57.259Z,2560
2017-06-19T03:54:06.395Z,3296
2017-06-19T04:04:15.440Z,3952
2017-06-19T04:14:24.404Z,4612
2017-06-19T04:24:33.275Z,5080
2017-06-19T04:34:42.072Z,5580
2017-06-19T04:44:50.759Z,6092
2017-06-19T04:54:59.750Z,6320
2017-06-19T05:05:07.746Z,6892
2017-06-19T05:15:16.080Z,7244
2017-06-19T05:25:24.313Z,7508
2017-06-19T05:35:32.427Z,9780
2017-06-19T05:45:40.391Z,13372
2017-06-19T05:55:48.240Z,16544
2017-06-19T06:05:55.987Z,20864
2017-06-19T06:16:03.609Z,25856
2017-06-19T06:26:11.168Z,30592
2017-06-19T06:36:18.643Z,33984
2017-06-19T06:46:26.041Z,37408
2017-06-19T06:56:33.361Z,45440
2017-06-19T07:06:40.582Z,52032
2017-06-19T07:16:47.694Z,56160
2017-06-19T07:26:54.697Z,65344
2017-06-19T07:37:01.588Z,68512
2017-06-19T07:47:08.424Z,68800
2017-06-19T07:57:15.303Z,80736
2017-06-19T08:07:22.120Z,79328
2017-06-19T08:17:28.912Z,86208
2017-06-19T08:27:35.665Z,90400
2017-06-19T08:37:42.361Z,94400
2017-06-19T08:47:49.117Z,98816
2017-06-19T08:57:55.759Z,105600
2017-06-19T09:08:02.379Z,100608
2017-06-19T09:18:08.909Z,100448
2017-06-19T09:28:15.421Z,99488
2017-06-19T09:38:21.818Z,95360
2017-06-19T09:48:28.252Z,108416
2017-06-19T09:58:34.689Z,97888
2017-06-19T10:08:41.034Z,106912
2017-06-19T10:18:47.476Z,116128
2017-06-19T10:28:53.911Z,127392
2017-06-19T10:39:00.322Z,123136
2017-06-19T10:49:06.779Z,124928
2017-06-19T10:59:13.286Z,129632
2017-06-19T11:09:19.610Z,134816
2017-06-19T11:19:25.950Z,134336
2017-06-19T11:29:32.289Z,137056
2017-06-19T11:39:38.612Z,135744
2017-06-19T11:49:44.925Z,135392
2017-06-19T11:59:51.218Z,124032
2017-06-19T12:09:57.535Z,120192
2017-06-19T12:20:03.746Z,121216
2017-06-19T12:30:09.951Z,112832
2017-06-19T12:40:16.162Z,110816
2017-06-19T12:50:22.318Z,106208
2017-06-19T13:00:28.446Z,103104
2017-06-19T13:10:34.640Z,117120
2017-06-19T13:20:40.776Z,93056
2017-06-19T13:30:46.795Z,103200
2017-06-19T13:40:52.865Z,100032
2017-06-19T13:50:58.884Z,99840
2017-06-19T14:01:04.925Z,100288
2017-06-19T14:11:10.990Z,98144
2017-06-19T14:21:17.051Z,86112
2017-06-19T14:31:23.059Z,86400
2017-06-19T14:41:28.969Z,73920
2017-06-19T14:51:34.912Z,77344
2017-06-19T15:01:40.851Z,66752
2017-06-19T15:11:47.046Z,49728
2017-06-19T15:21:53.234Z,71904
2017-06-19T15:31:59.252Z,61408
2017-06-19T15:42:05.205Z,62368
2017-06-19T15:52:11.350Z,54848
2017-06-19T16:02:17.076Z,43040
2017-06-19T16:12:22.971Z,33568
2017-06-19T16:22:28.788Z,39776
2017-06-19T16:32:34.720Z,40128
2017-06-19T16:42:40.627Z,13816
2017-06-19T16:52:46.578Z,13668
2017-06-19T17:02:52.544Z,13072
2017-06-19T17:12:58.662Z,12156
2017-06-19T17:23:04.893Z,11704
2017-06-19T17:33:11.360Z,8900
2017-06-19T17:43:18.153Z,9804
2017-06-19T17:53:24.963Z,8888
2017-06-19T18:03:31.845Z,8144
2017-06-19T18:13:38.815Z,6520
2017-06-19T18:23:45.932Z,6052
2017-06-19T18:33:53.084Z,5568
2017-06-19T18:44:00.283Z,4616
2017-06-19T18:54:07.587Z,4124
2017-06-19T19:04:14.978Z,3936
2017-06-19T19:14:22.391Z,2876
2017-06-19T19:24:29.901Z,1984
2017-06-19T19:34:37.528Z,1152
2017-06-19T19:44:45.202Z,564
2017-06-19T19:54:53.105Z,264
2017-06-19T20:05:01.059Z,108
2017-06-19T20:15:09.156Z,40
2017-06-19T20:25:17.379Z,12
2017-06-19T20:35:25.681Z,4
2017-06-19T20:45:34.015Z,0
2017-06-19T20:55:42.384Z,0
2017-06-19T21:05:50.706Z,0
2017-06-19T21:15:59.117Z,0
2017-06-19T21:26:07.594Z,0
2017-06-19T21:36:16.078Z,0
2017-06-19T21:46:24.532Z,0
2017-06-19T21:56:33.100Z,0
2017-06-19T22:06:41.635Z,0
2017-06-19T22:16:50.141Z,0
2017-06-19T22:26:58.671Z,0
2017-06-19T22:37:07.239Z,0
2017-06-19T22:47:15.940Z,0
2017-06-19T22:57:24.313Z,0
2017-06-19T23:07:32.801Z,0
2017-06-19T23:17:41.316Z,0
2017-06-19T23:27:49.951Z,0
2017-06-19T23:37:58.626Z,0
2017-06-19T23:48:07.253Z,0
2017-06-19T23:58:15.912Z,0
